sensor_id;sensor_type;location;lat;lon;timestamp;pressure;altitude;pressure_sealevel;temperature;humidity
46722;BME280;32455;43.430;23.136;2022-09-17T00:00:02;97123.03;;;17.81;96.56
46722;BME280;32455;43.430;23.136;2022-09-17T00:02:51;97119.81;;;17.79;96.79
46722;BME280;32455;43.430;23.136;2022-09-17T00:05:40;97120.38;;;17.75;96.97
46722;BME280;32455;43.430;23.136;2022-09-17T00:08:26;97104.63;;;17.72;96.83
46722;BME280;32455;43.430;23.136;2022-09-17T00:11:23;97114.19;;;17.70;97.61
46722;BME280;32455;43.430;23.136;2022-09-17T00:14:17;97110.03;;;17.77;97.40
46722;BME280;32455;43.430;23.136;2022-09-17T00:17:02;97125.34;;;17.68;97.71
46722;BME280;32455;43.430;23.136;2022-09-17T00:19:48;97131.47;;;17.79;97.41
46722;BME280;32455;43.430;23.136;2022-09-17T00:22:34;97124.28;;;17.88;96.46
46722;BME280;32455;43.430;23.136;2022-09-17T00:25:20;97115.09;;;17.84;97.14
46722;BME280;32455;43.430;23.136;2022-09-17T00:28:05;97120.66;;;17.93;96.91
46722;BME280;32455;43.430;23.136;2022-09-17T00:30:51;97109.88;;;17.88;96.79
46722;BME280;32455;43.430;23.136;2022-09-17T00:33:36;97098.34;;;17.96;96.12
46722;BME280;32455;43.430;23.136;2022-09-17T00:36:21;97090.31;;;17.86;96.94
46722;BME280;32455;43.430;23.136;2022-09-17T00:39:09;97080.78;;;17.69;97.55
46722;BME280;32455;43.430;23.136;2022-09-17T00:41:55;97090.84;;;17.69;98.14
46722;BME280;32455;43.430;23.136;2022-09-17T00:44:52;97081.38;;;17.66;98.91
46722;BME280;32455;43.430;23.136;2022-09-17T00:47:41;97089.34;;;17.82;97.46
46722;BME280;32455;43.430;23.136;2022-09-17T00:50:33;97088.34;;;17.91;97.60
46722;BME280;32455;43.430;23.136;2022-09-17T00:53:21;97095.13;;;17.75;98.92
46722;BME280;32455;43.430;23.136;2022-09-17T00:56:13;97098.88;;;17.60;100.00
46722;BME280;32455;43.430;23.136;2022-09-17T00:59:04;97090.09;;;17.63;99.79
46722;BME280;32455;43.430;23.136;2022-09-17T01:01:50;97072.13;;;17.48;100.00
46722;BME280;32455;43.430;23.136;2022-09-17T01:04:36;97056.25;;;17.56;100.00
46722;BME280;32455;43.430;23.136;2022-09-17T01:11:30;97053.22;;;17.43;100.00
46722;BME280;32455;43.430;23.136;2022-09-17T01:27:21;97050.22;;;17.96;96.93
46722;BME280;32455;43.430;23.136;2022-09-17T01:30:19;97059.25;;;18.24;95.42
46722;BME280;32455;43.430;23.136;2022-09-17T01:36:32;97058.00;;;18.03;97.01
46722;BME280;32455;43.430;23.136;2022-09-17T01:42:37;97039.22;;;17.88;97.52
46722;BME280;32455;43.430;23.136;2022-09-17T01:45:34;97048.41;;;17.92;97.35
46722;BME280;32455;43.430;23.136;2022-09-17T01:48:28;97052.44;;;17.94;96.99
46722;BME280;32455;43.430;23.136;2022-09-17T01:51:18;97038.63;;;17.72;98.95
46722;BME280;32455;43.430;23.136;2022-09-17T01:54:20;97028.22;;;17.79;99.34
46722;BME280;32455;43.430;23.136;2022-09-17T01:57:25;97030.25;;;17.87;98.54
46722;BME280;32455;43.430;23.136;2022-09-17T02:00:12;97016.03;;;17.58;100.00
46722;BME280;32455;43.430;23.136;2022-09-17T02:03:03;96990.56;;;17.53;100.00
46722;BME280;32455;43.430;23.136;2022-09-17T02:06:18;97003.19;;;17.63;99.62
46722;BME280;32455;43.430;23.136;2022-09-17T02:09:16;96996.22;;;17.57;100.00
46722;BME280;32455;43.430;23.136;2022-09-17T02:12:08;97005.75;;;17.73;99.83
46722;BME280;32455;43.430;23.136;2022-09-17T02:14:57;97003.91;;;18.01;97.44
46722;BME280;32455;43.430;23.136;2022-09-17T02:17:48;97008.00;;;17.85;97.75
46722;BME280;32455;43.430;23.136;2022-09-17T02:20:45;97010.69;;;17.34;100.00
46722;BME280;32455;43.430;23.136;2022-09-17T02:23:43;97004.56;;;17.80;97.57
46722;BME280;32455;43.430;23.136;2022-09-17T02:26:31;96985.75;;;17.64;98.27
46722;BME280;32455;43.430;23.136;2022-09-17T02:29:40;96965.19;;;17.77;96.54
46722;BME280;32455;43.430;23.136;2022-09-17T02:32:26;96956.38;;;17.85;96.76
46722;BME280;32455;43.430;23.136;2022-09-17T02:35:13;96924.56;;;17.86;95.85
46722;BME280;32455;43.430;23.136;2022-09-17T02:37:59;96936.97;;;18.06;95.22
46722;BME280;32455;43.430;23.136;2022-09-17T02:40:48;96938.25;;;17.81;97.09
46722;BME280;32455;43.430;23.136;2022-09-17T02:43:44;96926.09;;;17.92;96.95
46722;BME280;32455;43.430;23.136;2022-09-17T02:46:55;96932.72;;;17.86;97.67
46722;BME280;32455;43.430;23.136;2022-09-17T02:49:50;96926.50;;;18.26;94.58
46722;BME280;32455;43.430;23.136;2022-09-17T02:56:00;96909.41;;;18.26;94.51
46722;BME280;32455;43.430;23.136;2022-09-17T03:04:38;96870.94;;;17.77;96.61
46722;BME280;32455;43.430;23.136;2022-09-17T03:07:24;96863.59;;;17.92;96.21
46722;BME280;32455;43.430;23.136;2022-09-17T03:10:10;96858.53;;;17.85;96.71
46722;BME280;32455;43.430;23.136;2022-09-17T03:12:57;96844.34;;;17.88;96.06
46722;BME280;32455;43.430;23.136;2022-09-17T03:15:43;96818.56;;;18.13;94.19
46722;BME280;32455;43.430;23.136;2022-09-17T03:18:28;96820.25;;;18.23;93.79
46722;BME280;32455;43.430;23.136;2022-09-17T03:21:13;96825.75;;;18.45;89.82
46722;BME280;32455;43.430;23.136;2022-09-17T03:23:59;96835.97;;;18.76;87.65
46722;BME280;32455;43.430;23.136;2022-09-17T03:26:45;96838.19;;;19.41;81.10
46722;BME280;32455;43.430;23.136;2022-09-17T03:29:33;96829.03;;;19.68;78.61
46722;BME280;32455;43.430;23.136;2022-09-17T03:32:19;96836.81;;;19.92;77.22
46722;BME280;32455;43.430;23.136;2022-09-17T03:35:04;96826.78;;;20.10;75.31
46722;BME280;32455;43.430;23.136;2022-09-17T03:37:50;96822.00;;;20.42;72.35
46722;BME280;32455;43.430;23.136;2022-09-17T03:40:35;96813.22;;;20.54;71.35
46722;BME280;32455;43.430;23.136;2022-09-17T03:43:21;96823.97;;;20.93;69.70
46722;BME280;32455;43.430;23.136;2022-09-17T03:46:08;96817.56;;;20.81;69.72
46722;BME280;32455;43.430;23.136;2022-09-17T03:48:56;96811.09;;;21.02;69.70
46722;BME280;32455;43.430;23.136;2022-09-17T03:51:42;96805.63;;;21.37;66.57
46722;BME280;32455;43.430;23.136;2022-09-17T03:54:28;96823.63;;;21.38;67.36
46722;BME280;32455;43.430;23.136;2022-09-17T03:57:13;96832.97;;;21.20;68.45
46722;BME280;32455;43.430;23.136;2022-09-17T03:59:59;96812.44;;;20.53;71.70
46722;BME280;32455;43.430;23.136;2022-09-17T04:02:45;96832.66;;;20.61;72.65
46722;BME280;32455;43.430;23.136;2022-09-17T04:05:31;96832.41;;;20.14;75.14
46722;BME280;32455;43.430;23.136;2022-09-17T04:08:17;96835.41;;;20.04;76.32
46722;BME280;32455;43.430;23.136;2022-09-17T04:11:03;96836.84;;;19.61;79.18
46722;BME280;32455;43.430;23.136;2022-09-17T04:13:48;96846.44;;;19.59;79.71
46722;BME280;32455;43.430;23.136;2022-09-17T04:16:34;96834.69;;;19.49;80.98
46722;BME280;32455;43.430;23.136;2022-09-17T04:19:18;96840.41;;;19.62;79.65
46722;BME280;32455;43.430;23.136;2022-09-17T04:22:04;96844.75;;;19.71;78.78
46722;BME280;32455;43.430;23.136;2022-09-17T04:24:49;96848.47;;;19.75;79.30
46722;BME280;32455;43.430;23.136;2022-09-17T04:27:35;96839.16;;;19.76;80.08
46722;BME280;32455;43.430;23.136;2022-09-17T04:30:21;96837.56;;;19.75;80.08
46722;BME280;32455;43.430;23.136;2022-09-17T04:33:10;96853.16;;;19.84;79.35
46722;BME280;32455;43.430;23.136;2022-09-17T04:35:56;96847.75;;;19.39;81.87
46722;BME280;32455;43.430;23.136;2022-09-17T04:38:41;96842.63;;;18.70;85.61
46722;BME280;32455;43.430;23.136;2022-09-17T04:41:27;96820.41;;;18.90;81.46
46722;BME280;32455;43.430;23.136;2022-09-17T04:44:12;96852.06;;;20.59;69.94
46722;BME280;32455;43.430;23.136;2022-09-17T04:46:58;96872.81;;;20.78;69.61
46722;BME280;32455;43.430;23.136;2022-09-17T04:49:43;96869.41;;;21.07;68.66
46722;BME280;32455;43.430;23.136;2022-09-17T04:52:29;96863.75;;;21.55;65.93
46722;BME280;32455;43.430;23.136;2022-09-17T04:55:15;96827.75;;;21.91;64.13
46722;BME280;32455;43.430;23.136;2022-09-17T04:58:01;96817.03;;;22.16;63.17
46722;BME280;32455;43.430;23.136;2022-09-17T05:00:47;96810.91;;;22.19;62.94
46722;BME280;32455;43.430;23.136;2022-09-17T05:03:32;96831.31;;;22.51;61.87
46722;BME280;32455;43.430;23.136;2022-09-17T05:06:18;96808.06;;;22.36;62.67
46722;BME280;32455;43.430;23.136;2022-09-17T05:09:03;96820.91;;;22.44;62.60
46722;BME280;32455;43.430;23.136;2022-09-17T05:11:49;96811.06;;;22.43;62.95
46722;BME280;32455;43.430;23.136;2022-09-17T05:14:35;96801.84;;;22.48;62.84
46722;BME280;32455;43.430;23.136;2022-09-17T05:17:21;96816.09;;;22.41;63.74
46722;BME280;32455;43.430;23.136;2022-09-17T05:20:07;96813.69;;;22.40;63.53
46722;BME280;32455;43.430;23.136;2022-09-17T05:22:52;96829.47;;;22.34;63.56
46722;BME280;32455;43.430;23.136;2022-09-17T05:25:38;96831.06;;;22.35;63.79
46722;BME280;32455;43.430;23.136;2022-09-17T05:28:24;96841.72;;;22.37;63.24
46722;BME280;32455;43.430;23.136;2022-09-17T05:31:11;96854.41;;;22.41;63.48
46722;BME280;32455;43.430;23.136;2022-09-17T05:33:57;96856.53;;;22.36;62.45
46722;BME280;32455;43.430;23.136;2022-09-17T05:36:42;96854.41;;;22.41;62.52
46722;BME280;32455;43.430;23.136;2022-09-17T05:39:28;96862.47;;;22.38;61.48
46722;BME280;32455;43.430;23.136;2022-09-17T05:42:13;96872.91;;;22.44;59.64
46722;BME280;32455;43.430;23.136;2022-09-17T05:44:59;96849.94;;;22.58;59.10
46722;BME280;32455;43.430;23.136;2022-09-17T05:47:44;96831.44;;;22.55;57.70
46722;BME280;32455;43.430;23.136;2022-09-17T05:50:30;96834.78;;;22.81;56.05
46722;BME280;32455;43.430;23.136;2022-09-17T05:53:15;96848.75;;;22.88;55.38
46722;BME280;32455;43.430;23.136;2022-09-17T05:56:01;96853.94;;;22.81;56.65
46722;BME280;32455;43.430;23.136;2022-09-17T05:58:46;96844.47;;;22.79;56.68
46722;BME280;32455;43.430;23.136;2022-09-17T06:01:31;96869.78;;;22.75;57.95
46722;BME280;32455;43.430;23.136;2022-09-17T06:04:16;96879.88;;;22.63;58.60
46722;BME280;32455;43.430;23.136;2022-09-17T06:07:04;96870.38;;;22.60;59.16
46722;BME280;32455;43.430;23.136;2022-09-17T06:09:52;96852.00;;;22.61;57.00
46722;BME280;32455;43.430;23.136;2022-09-17T06:12:37;96842.00;;;22.65;56.75
46722;BME280;32455;43.430;23.136;2022-09-17T06:15:24;96853.94;;;22.60;56.33
46722;BME280;32455;43.430;23.136;2022-09-17T06:18:10;96843.13;;;22.64;56.07
46722;BME280;32455;43.430;23.136;2022-09-17T06:20:57;96868.44;;;22.61;57.35
46722;BME280;32455;43.430;23.136;2022-09-17T06:23:43;96853.41;;;22.46;57.33
46722;BME280;32455;43.430;23.136;2022-09-17T06:26:29;96877.59;;;22.65;57.32
46722;BME280;32455;43.430;23.136;2022-09-17T06:29:14;96887.44;;;22.66;56.61
46722;BME280;32455;43.430;23.136;2022-09-17T06:32:00;96870.56;;;22.55;56.14
46722;BME280;32455;43.430;23.136;2022-09-17T06:34:46;96881.41;;;22.72;55.33
46722;BME280;32455;43.430;23.136;2022-09-17T06:37:33;96882.31;;;22.56;56.50
46722;BME280;32455;43.430;23.136;2022-09-17T06:40:19;96889.44;;;22.48;57.29
46722;BME280;32455;43.430;23.136;2022-09-17T06:43:07;96901.28;;;22.40;57.77
46722;BME280;32455;43.430;23.136;2022-09-17T06:45:58;96900.59;;;22.43;57.67
46722;BME280;32455;43.430;23.136;2022-09-17T06:48:43;96914.50;;;22.29;58.17
46722;BME280;32455;43.430;23.136;2022-09-17T06:51:29;96927.41;;;22.29;58.58
46722;BME280;32455;43.430;23.136;2022-09-17T06:54:15;96956.75;;;22.19;59.90
46722;BME280;32455;43.430;23.136;2022-09-17T06:57:01;96960.13;;;22.08;60.06
46722;BME280;32455;43.430;23.136;2022-09-17T06:59:46;97000.34;;;22.24;60.24
46722;BME280;32455;43.430;23.136;2022-09-17T07:02:34;97036.06;;;22.11;61.69
46722;BME280;32455;43.430;23.136;2022-09-17T07:05:20;97035.59;;;21.31;70.44
46722;BME280;32455;43.430;23.136;2022-09-17T07:08:05;97023.66;;;20.21;77.26
46722;BME280;32455;43.430;23.136;2022-09-17T07:10:54;97061.16;;;20.15;78.77
46722;BME280;32455;43.430;23.136;2022-09-17T07:13:40;97052.13;;;20.06;78.71
46722;BME280;32455;43.430;23.136;2022-09-17T07:16:26;97055.56;;;19.67;82.31
46722;BME280;32455;43.430;23.136;2022-09-17T07:19:14;97040.81;;;19.68;83.35
46722;BME280;32455;43.430;23.136;2022-09-17T07:21:59;97012.13;;;19.34;86.64
46722;BME280;32455;43.430;23.136;2022-09-17T07:24:44;96999.13;;;19.31;85.99
46722;BME280;32455;43.430;23.136;2022-09-17T07:27:30;97006.53;;;19.53;85.71
46722;BME280;32455;43.430;23.136;2022-09-17T07:30:15;97009.50;;;19.65;85.03
46722;BME280;32455;43.430;23.136;2022-09-17T07:33:01;97002.94;;;19.89;83.86
46722;BME280;32455;43.430;23.136;2022-09-17T07:35:55;97026.19;;;19.64;86.22
46722;BME280;32455;43.430;23.136;2022-09-17T07:38:40;97005.31;;;19.82;85.82
46722;BME280;32455;43.430;23.136;2022-09-17T07:41:27;97003.22;;;19.20;90.67
46722;BME280;32455;43.430;23.136;2022-09-17T07:44:12;96994.00;;;19.30;89.47
46722;BME280;32455;43.430;23.136;2022-09-17T07:46:57;97015.38;;;19.36;89.12
46722;BME280;32455;43.430;23.136;2022-09-17T07:49:43;97019.91;;;19.41;89.61
46722;BME280;32455;43.430;23.136;2022-09-17T07:52:27;97037.81;;;19.06;92.51
46722;BME280;32455;43.430;23.136;2022-09-17T07:55:13;97038.09;;;19.32;91.59
46722;BME280;32455;43.430;23.136;2022-09-17T07:57:59;97031.91;;;18.76;97.77
46722;BME280;32455;43.430;23.136;2022-09-17T08:00:44;97052.16;;;18.84;95.87
46722;BME280;32455;43.430;23.136;2022-09-17T08:03:30;97047.59;;;18.65;98.26
46722;BME280;32455;43.430;23.136;2022-09-17T08:06:18;97069.59;;;18.83;97.35
46722;BME280;32455;43.430;23.136;2022-09-17T08:09:04;97061.59;;;18.45;100.00
46722;BME280;32455;43.430;23.136;2022-09-17T08:11:50;97056.06;;;18.64;100.00
46722;BME280;32455;43.430;23.136;2022-09-17T08:14:35;97060.81;;;18.99;98.32
46722;BME280;32455;43.430;23.136;2022-09-17T08:17:20;97050.25;;;18.98;97.59
46722;BME280;32455;43.430;23.136;2022-09-17T08:20:06;97054.34;;;18.54;100.00
46722;BME280;32455;43.430;23.136;2022-09-17T08:23:02;97066.22;;;18.44;100.00
46722;BME280;32455;43.430;23.136;2022-09-17T08:25:54;97065.03;;;18.50;100.00
46722;BME280;32455;43.430;23.136;2022-09-17T08:28:43;97060.09;;;18.66;100.00
46722;BME280;32455;43.430;23.136;2022-09-17T08:31:29;97050.63;;;18.50;100.00
46722;BME280;32455;43.430;23.136;2022-09-17T08:34:17;97058.06;;;18.44;100.00
46722;BME280;32455;43.430;23.136;2022-09-17T08:37:02;97071.38;;;18.60;100.00
46722;BME280;32455;43.430;23.136;2022-09-17T08:39:47;97061.50;;;18.64;100.00
46722;BME280;32455;43.430;23.136;2022-09-17T08:42:40;97079.34;;;18.56;100.00
46722;BME280;32455;43.430;23.136;2022-09-17T08:45:31;97081.53;;;18.54;100.00
46722;BME280;32455;43.430;23.136;2022-09-17T08:48:17;97085.03;;;18.73;100.00
46722;BME280;32455;43.430;23.136;2022-09-17T08:51:22;97080.06;;;18.75;100.00
46722;BME280;32455;43.430;23.136;2022-09-17T08:54:32;97075.75;;;18.88;100.00
46722;BME280;32455;43.430;23.136;2022-09-17T08:57:24;97077.16;;;18.86;100.00
46722;BME280;32455;43.430;23.136;2022-09-17T09:00:16;97084.53;;;18.99;100.00
46722;BME280;32455;43.430;23.136;2022-09-17T09:06:01;97102.72;;;18.57;100.00
46722;BME280;32455;43.430;23.136;2022-09-17T09:08:49;97093.88;;;18.19;100.00
46722;BME280;32455;43.430;23.136;2022-09-17T09:11:41;97088.97;;;18.35;100.00
46722;BME280;32455;43.430;23.136;2022-09-17T09:14:43;97083.66;;;18.57;100.00
46722;BME280;32455;43.430;23.136;2022-09-17T09:17:37;97084.38;;;18.63;100.00
46722;BME280;32455;43.430;23.136;2022-09-17T09:20:36;97082.38;;;18.55;100.00
46722;BME280;32455;43.430;23.136;2022-09-17T09:23:40;97094.41;;;18.81;100.00
46722;BME280;32455;43.430;23.136;2022-09-17T09:26:40;97102.34;;;18.64;100.00
46722;BME280;32455;43.430;23.136;2022-09-17T09:32:44;97101.09;;;18.56;100.00
46722;BME280;32455;43.430;23.136;2022-09-17T09:35:35;97106.19;;;18.76;100.00
46722;BME280;32455;43.430;23.136;2022-09-17T09:41:58;97121.88;;;18.66;100.00
46722;BME280;32455;43.430;23.136;2022-09-17T09:44:47;97110.78;;;18.62;100.00
46722;BME280;32455;43.430;23.136;2022-09-17T09:47:44;97125.06;;;18.54;100.00
46722;BME280;32455;43.430;23.136;2022-09-17T09:51:16;97117.19;;;18.39;100.00
46722;BME280;32455;43.430;23.136;2022-09-17T09:57:35;97130.13;;;18.61;100.00
46722;BME280;32455;43.430;23.136;2022-09-17T10:00:39;97137.50;;;18.60;100.00
46722;BME280;32455;43.430;23.136;2022-09-17T10:03:32;97119.03;;;18.57;100.00
46722;BME280;32455;43.430;23.136;2022-09-17T10:06:22;97105.84;;;18.64;100.00
46722;BME280;32455;43.430;23.136;2022-09-17T10:09:09;97079.78;;;18.77;100.00
46722;BME280;32455;43.430;23.136;2022-09-17T10:12:16;97092.59;;;18.90;100.00
46722;BME280;32455;43.430;23.136;2022-09-17T10:15:25;97103.63;;;18.66;100.00
46722;BME280;32455;43.430;23.136;2022-09-17T10:18:15;97065.59;;;18.80;100.00
46722;BME280;32455;43.430;23.136;2022-09-17T10:21:01;97036.03;;;18.87;100.00
46722;BME280;32455;43.430;23.136;2022-09-17T10:23:48;97032.69;;;19.04;100.00
46722;BME280;32455;43.430;23.136;2022-09-17T10:26:36;97025.72;;;19.12;100.00
46722;BME280;32455;43.430;23.136;2022-09-17T10:29:22;97035.03;;;18.83;100.00
46722;BME280;32455;43.430;23.136;2022-09-17T10:32:14;97038.66;;;18.79;100.00
46722;BME280;32455;43.430;23.136;2022-09-17T10:37:58;97067.53;;;18.47;100.00
46722;BME280;32455;43.430;23.136;2022-09-17T10:40:44;97042.53;;;18.45;100.00
46722;BME280;32455;43.430;23.136;2022-09-17T10:43:30;97015.38;;;18.72;100.00
46722;BME280;32455;43.430;23.136;2022-09-17T10:46:27;97006.38;;;18.58;100.00
46722;BME280;32455;43.430;23.136;2022-09-17T10:49:52;97003.38;;;18.60;100.00
46722;BME280;32455;43.430;23.136;2022-09-17T10:52:46;97004.88;;;18.38;100.00
46722;BME280;32455;43.430;23.136;2022-09-17T10:55:50;96996.63;;;18.30;100.00
46722;BME280;32455;43.430;23.136;2022-09-17T11:05:40;96936.66;;;18.07;100.00
46722;BME280;32455;43.430;23.136;2022-09-17T11:21:38;96931.84;;;18.32;100.00
46722;BME280;32455;43.430;23.136;2022-09-17T11:24:37;96940.72;;;18.51;100.00
46722;BME280;32455;43.430;23.136;2022-09-17T11:27:52;96948.97;;;18.73;100.00
46722;BME280;32455;43.430;23.136;2022-09-17T11:31:07;96966.56;;;18.62;100.00
46722;BME280;32455;43.430;23.136;2022-09-17T11:34:21;96967.88;;;18.65;100.00
46722;BME280;32455;43.430;23.136;2022-09-17T11:37:29;96963.13;;;18.84;100.00
46722;BME280;32455;43.430;23.136;2022-09-17T11:41:36;96950.97;;;18.82;100.00
46722;BME280;32455;43.430;23.136;2022-09-17T11:46:56;96936.97;;;19.11;100.00
46722;BME280;32455;43.430;23.136;2022-09-17T11:49:52;96921.13;;;19.13;100.00
46722;BME280;32455;43.430;23.136;2022-09-17T11:52:47;96931.34;;;19.30;100.00
46722;BME280;32455;43.430;23.136;2022-09-17T12:07:30;96938.03;;;19.46;100.00
46722;BME280;32455;43.430;23.136;2022-09-17T12:13:29;96925.53;;;19.67;100.00
46722;BME280;32455;43.430;23.136;2022-09-17T12:16:41;96933.31;;;19.83;100.00
46722;BME280;32455;43.430;23.136;2022-09-17T12:19:34;96925.63;;;19.85;100.00
46722;BME280;32455;43.430;23.136;2022-09-17T12:22:27;96914.06;;;19.79;100.00
46722;BME280;32455;43.430;23.136;2022-09-17T12:25:15;96929.47;;;19.84;100.00
46722;BME280;32455;43.430;23.136;2022-09-17T12:28:06;96922.59;;;19.86;100.00
46722;BME280;32455;43.430;23.136;2022-09-17T12:31:04;96930.53;;;19.74;100.00
46722;BME280;32455;43.430;23.136;2022-09-17T12:34:05;96921.41;;;19.70;100.00
46722;BME280;32455;43.430;23.136;2022-09-17T12:40:31;96899.75;;;19.73;100.00
46722;BME280;32455;43.430;23.136;2022-09-17T12:47:08;96892.22;;;19.70;100.00
46722;BME280;32455;43.430;23.136;2022-09-17T12:59:08;96873.63;;;19.72;97.79
46722;BME280;32455;43.430;23.136;2022-09-17T13:02:03;96843.22;;;19.57;97.51
46722;BME280;32455;43.430;23.136;2022-09-17T13:08:15;96857.63;;;19.80;96.30
46722;BME280;32455;43.430;23.136;2022-09-17T13:14:00;96856.84;;;19.88;91.18
46722;BME280;32455;43.430;23.136;2022-09-17T13:22:52;96814.59;;;20.16;89.29
46722;BME280;32455;43.430;23.136;2022-09-17T13:25:53;96820.63;;;20.62;81.67
46722;BME280;32455;43.430;23.136;2022-09-17T13:28:44;96811.00;;;20.73;83.13
46722;BME280;32455;43.430;23.136;2022-09-17T13:34:27;96788.81;;;20.83;84.68
46722;BME280;32455;43.430;23.136;2022-09-17T13:37:20;96773.06;;;20.80;83.70
46722;BME280;32455;43.430;23.136;2022-09-17T13:40:23;96763.44;;;20.91;84.87
46722;BME280;32455;43.430;23.136;2022-09-17T13:43:13;96758.59;;;20.97;83.12
46722;BME280;32455;43.430;23.136;2022-09-17T13:48:47;96764.53;;;21.08;84.24
46722;BME280;32455;43.430;23.136;2022-09-17T13:54:22;96769.34;;;21.02;81.77
46722;BME280;32455;43.430;23.136;2022-09-17T13:57:21;96766.00;;;20.96;83.80
46722;BME280;32455;43.430;23.136;2022-09-17T14:09:32;96751.06;;;20.85;88.88
46722;BME280;32455;43.430;23.136;2022-09-17T14:21:31;96726.38;;;20.73;96.59
46722;BME280;32455;43.430;23.136;2022-09-17T14:24:21;96727.66;;;20.67;92.61
46722;BME280;32455;43.430;23.136;2022-09-17T14:27:10;96723.31;;;20.66;92.77
46722;BME280;32455;43.430;23.136;2022-09-17T14:30:14;96716.28;;;20.65;96.46
46722;BME280;32455;43.430;23.136;2022-09-17T14:35:46;96712.09;;;20.50;99.15
46722;BME280;32455;43.430;23.136;2022-09-17T14:38:38;96711.63;;;20.48;100.00
46722;BME280;32455;43.430;23.136;2022-09-17T14:41:34;96710.31;;;20.54;100.00
46722;BME280;32455;43.430;23.136;2022-09-17T14:44:26;96705.38;;;20.56;100.00
46722;BME280;32455;43.430;23.136;2022-09-17T14:47:19;96705.50;;;20.51;99.30
46722;BME280;32455;43.430;23.136;2022-09-17T14:50:24;96708.41;;;20.55;97.83
46722;BME280;32455;43.430;23.136;2022-09-17T14:53:18;96699.41;;;20.37;100.00
46722;BME280;32455;43.430;23.136;2022-09-17T14:56:16;96696.22;;;20.17;100.00
46722;BME280;32455;43.430;23.136;2022-09-17T14:59:03;96706.44;;;20.12;100.00
46722;BME280;32455;43.430;23.136;2022-09-17T15:01:49;96696.84;;;20.14;100.00
46722;BME280;32455;43.430;23.136;2022-09-17T15:04:34;96713.81;;;20.02;100.00
46722;BME280;32455;43.430;23.136;2022-09-17T15:07:20;96714.94;;;19.84;100.00
46722;BME280;32455;43.430;23.136;2022-09-17T15:10:08;96705.66;;;20.11;100.00
46722;BME280;32455;43.430;23.136;2022-09-17T15:12:57;96680.47;;;20.06;100.00
46722;BME280;32455;43.430;23.136;2022-09-17T15:16:00;96690.88;;;19.95;100.00
46722;BME280;32455;43.430;23.136;2022-09-17T15:18:49;96687.84;;;20.05;100.00
46722;BME280;32455;43.430;23.136;2022-09-17T15:21:44;96676.78;;;20.10;100.00
46722;BME280;32455;43.430;23.136;2022-09-17T15:27:37;96670.19;;;20.02;100.00
46722;BME280;32455;43.430;23.136;2022-09-17T15:30:24;96690.25;;;20.15;100.00
46722;BME280;32455;43.430;23.136;2022-09-17T15:33:09;96690.75;;;19.91;100.00
46722;BME280;32455;43.430;23.136;2022-09-17T15:39:28;96692.16;;;19.80;100.00
46722;BME280;32455;43.430;23.136;2022-09-17T15:42:28;96686.72;;;19.89;100.00
46722;BME280;32455;43.430;23.136;2022-09-17T15:45:20;96689.25;;;19.76;100.00
46722;BME280;32455;43.430;23.136;2022-09-17T15:48:05;96676.59;;;19.81;100.00
46722;BME280;32455;43.430;23.136;2022-09-17T15:51:04;96682.22;;;19.75;100.00
46722;BME280;32455;43.430;23.136;2022-09-17T15:53:57;96690.38;;;19.75;100.00
46722;BME280;32455;43.430;23.136;2022-09-17T15:56:42;96677.88;;;19.66;100.00
46722;BME280;32455;43.430;23.136;2022-09-17T15:59:30;96681.72;;;19.73;100.00
46722;BME280;32455;43.430;23.136;2022-09-17T16:02:29;96679.16;;;19.86;100.00
46722;BME280;32455;43.430;23.136;2022-09-17T16:08:18;96663.78;;;19.81;100.00
46722;BME280;32455;43.430;23.136;2022-09-17T16:11:04;96682.88;;;19.90;100.00
46722;BME280;32455;43.430;23.136;2022-09-17T16:13:51;96669.41;;;19.85;100.00
46722;BME280;32455;43.430;23.136;2022-09-17T16:16:37;96672.25;;;19.71;100.00
46722;BME280;32455;43.430;23.136;2022-09-17T16:19:22;96675.91;;;19.58;100.00
46722;BME280;32455;43.430;23.136;2022-09-17T16:22:08;96687.75;;;19.53;100.00
46722;BME280;32455;43.430;23.136;2022-09-17T16:24:53;96681.75;;;19.34;100.00
46722;BME280;32455;43.430;23.136;2022-09-17T16:27:45;96681.28;;;19.32;100.00
46722;BME280;32455;43.430;23.136;2022-09-17T16:30:32;96683.56;;;19.47;100.00
46722;BME280;32455;43.430;23.136;2022-09-17T16:33:17;96681.13;;;19.37;100.00
46722;BME280;32455;43.430;23.136;2022-09-17T16:36:04;96671.63;;;19.25;100.00
46722;BME280;32455;43.430;23.136;2022-09-17T16:38:49;96675.81;;;19.23;100.00
46722;BME280;32455;43.430;23.136;2022-09-17T16:41:34;96670.19;;;19.19;100.00
46722;BME280;32455;43.430;23.136;2022-09-17T16:44:20;96653.31;;;19.09;100.00
46722;BME280;32455;43.430;23.136;2022-09-17T16:47:05;96664.19;;;19.09;100.00
46722;BME280;32455;43.430;23.136;2022-09-17T16:49:51;96666.44;;;19.07;100.00
46722;BME280;32455;43.430;23.136;2022-09-17T16:52:35;96665.53;;;19.20;100.00
46722;BME280;32455;43.430;23.136;2022-09-17T16:55:21;96663.44;;;19.17;100.00
46722;BME280;32455;43.430;23.136;2022-09-17T16:58:07;96648.34;;;19.02;100.00
46722;BME280;32455;43.430;23.136;2022-09-17T17:00:53;96628.44;;;18.93;100.00
46722;BME280;32455;43.430;23.136;2022-09-17T17:03:38;96598.19;;;18.94;100.00
46722;BME280;32455;43.430;23.136;2022-09-17T17:06:24;96582.91;;;18.76;100.00
46722;BME280;32455;43.430;23.136;2022-09-17T17:09:09;96567.06;;;18.78;100.00
46722;BME280;32455;43.430;23.136;2022-09-17T17:11:56;96571.38;;;18.79;100.00
46722;BME280;32455;43.430;23.136;2022-09-17T17:14:41;96558.59;;;18.48;100.00
46722;BME280;32455;43.430;23.136;2022-09-17T17:17:28;96585.88;;;18.35;100.00